Time;durP1;ratioP1;P1;durP2;ratioP2;P2;SDS_P1;SDS_P2;PMS_P1;PMS_P2;Temp;Humidity;BMP_temperature;BMP_pressure;BME280_temperature;BME280_humidity;BME280_pressure;Samples;Min_cycle;Max_cycle;Signal;HPM_P1;HPM_P2
2022/01/07 00:02:22;;;;;;;2.60;2.40;;;;;;;;;;5027753;28;20889;-47
2022/01/07 00:04:48;;;;;;;3.30;2.55;;;;;;;;;;5024975;28;20226;-47
2022/01/07 00:07:14;;;;;;;2.83;2.38;;;;;;;;;;5042024;28;20202;-46
2022/01/07 00:09:40;;;;;;;3.25;2.60;;;;;;;;;;5039642;28;20195;-46
2022/01/07 00:12:07;;;;;;;3.00;2.65;;;;;;;;;;5037876;28;20229;-46
2022/01/07 00:14:33;;;;;;;2.65;2.40;;;;;;;;;;5035798;28;20575;-46
2022/01/07 00:16:59;;;;;;;2.65;2.35;;;;;;;;;;5048388;28;20275;-46
2022/01/07 00:19:25;;;;;;;2.97;2.47;;;;;;;;;;5032461;28;20493;-46
2022/01/07 00:21:51;;;;;;;2.42;2.22;;;;;;;;;;5039759;28;20192;-46
2022/01/07 00:24:17;;;;;;;3.78;2.60;;;;;;;;;;5038542;28;20726;-46
2022/01/07 00:26:43;;;;;;;3.17;2.50;;;;;;;;;;5043986;28;20201;-46
2022/01/07 00:29:09;;;;;;;2.85;2.58;;;;;;;;;;5043949;28;20490;-46
2022/01/07 00:31:35;;;;;;;3.70;2.50;;;;;;;;;;5038320;28;20198;-46
2022/01/07 00:34:01;;;;;;;2.50;2.30;;;;;;;;;;5032999;28;20275;-46
2022/01/07 00:36:27;;;;;;;3.90;2.50;;;;;;;;;;5021866;28;20190;-46
2022/01/07 00:38:53;;;;;;;2.60;2.30;;;;;;;;;;5040641;28;20179;-46
2022/01/07 00:41:19;;;;;;;2.63;2.17;;;;;;;;;;5044593;28;20214;-46
2022/01/07 00:43:45;;;;;;;3.45;2.40;;;;;;;;;;5039238;28;20594;-47
2022/01/07 00:46:11;;;;;;;3.03;2.38;;;;;;;;;;5042143;28;20179;-46
2022/01/07 00:48:37;;;;;;;2.65;2.30;;;;;;;;;;5036109;28;20188;-46
2022/01/07 00:51:03;;;;;;;2.40;2.15;;;;;;;;;;5030034;28;20182;-46
2022/01/07 00:53:29;;;;;;;2.53;2.33;;;;;;;;;;5025935;28;20202;-46
2022/01/07 00:55:55;;;;;;;4.03;2.20;;;;;;;;;;5043095;28;20183;-46
2022/01/07 00:58:21;;;;;;;2.20;1.90;;;;;;;;;;5037946;28;20554;-47
2022/01/07 01:00:47;;;;;;;2.53;1.95;;;;;;;;;;5035891;28;20214;-47
2022/01/07 01:03:13;;;;;;;2.53;2.33;;;;;;;;;;5028485;28;20227;-46
2022/01/07 01:05:42;;;;;;;2.90;2.42;;;;;;;;;;5034263;28;20184;-46
2022/01/07 01:08:08;;;;;;;2.53;2.03;;;;;;;;;;5041805;28;20549;-47
2022/01/07 01:10:34;;;;;;;2.63;2.30;;;;;;;;;;5037632;28;20461;-46
2022/01/07 01:13:00;;;;;;;3.10;2.25;;;;;;;;;;5040930;28;20194;-47
2022/01/07 01:15:27;;;;;;;2.60;2.25;;;;;;;;;;5036461;28;20187;-47
2022/01/07 01:17:55;;;;;;;2.60;2.05;;;;;;;;;;5045993;28;20193;-47
2022/01/07 01:20:21;;;;;;;2.40;2.17;;;;;;;;;;5035936;28;20187;-47
2022/01/07 01:22:47;;;;;;;2.20;2.00;;;;;;;;;;5035885;28;20261;-47
2022/01/07 01:25:13;;;;;;;2.05;1.85;;;;;;;;;;5043013;28;20183;-46
2022/01/07 01:27:40;;;;;;;2.40;2.20;;;;;;;;;;5038462;28;20214;-46
2022/01/07 01:30:07;;;;;;;2.60;1.98;;;;;;;;;;5038917;28;20604;-46
2022/01/07 01:32:34;;;;;;;2.65;2.25;;;;;;;;;;5039444;28;20186;-46
2022/01/07 01:34:59;;;;;;;2.50;2.30;;;;;;;;;;5038935;28;20238;-46
2022/01/07 01:37:25;;;;;;;2.40;1.90;;;;;;;;;;5038809;28;20187;-46
2022/01/07 01:39:52;;;;;;;3.08;2.20;;;;;;;;;;5042354;28;20563;-46
2022/01/07 01:42:18;;;;;;;2.00;1.88;;;;;;;;;;5028852;28;20888;-47
2022/01/07 01:44:44;;;;;;;2.22;2.00;;;;;;;;;;5040486;28;20225;-47
2022/01/07 01:47:10;;;;;;;2.05;1.85;;;;;;;;;;5043131;28;20179;-46
2022/01/07 01:49:36;;;;;;;2.58;1.98;;;;;;;;;;5031870;28;20270;-46
2022/01/07 01:52:02;;;;;;;1.98;1.80;;;;;;;;;;5037183;28;20187;-47
2022/01/07 01:54:28;;;;;;;2.28;2.03;;;;;;;;;;5036401;28;20195;-47
2022/01/07 01:56:54;;;;;;;2.25;1.85;;;;;;;;;;5027916;28;20188;-47
2022/01/07 01:59:26;;;;;;;2.10;1.85;;;;;;;;;;5031559;28;20242;-46
2022/01/07 02:01:52;;;;;;;2.95;1.80;;;;;;;;;;5030082;28;20212;-47
2022/01/07 02:04:18;;;;;;;2.05;1.85;;;;;;;;;;5024866;28;20190;-47
2022/01/07 02:06:44;;;;;;;1.98;1.60;;;;;;;;;;5045304;28;20186;-46
2022/01/07 02:09:11;;;;;;;1.80;1.67;;;;;;;;;;5039799;28;20179;-46
2022/01/07 02:11:37;;;;;;;2.05;1.85;;;;;;;;;;5034546;28;20219;-46
2022/01/07 02:14:03;;;;;;;2.45;1.83;;;;;;;;;;5043233;28;20198;-46
2022/01/07 02:16:29;;;;;;;2.13;1.90;;;;;;;;;;5039565;28;20562;-46
2022/01/07 02:18:55;;;;;;;2.25;2.05;;;;;;;;;;5047493;28;20186;-46
2022/01/07 02:21:21;;;;;;;2.22;1.92;;;;;;;;;;5041555;28;20234;-46
2022/01/07 02:23:47;;;;;;;2.35;2.00;;;;;;;;;;5044645;28;20202;-47
2022/01/07 02:26:14;;;;;;;2.10;1.90;;;;;;;;;;5045799;28;20175;-47
2022/01/07 02:28:41;;;;;;;1.77;1.67;;;;;;;;;;5036461;28;20183;-47
2022/01/07 02:31:07;;;;;;;2.08;1.77;;;;;;;;;;5044748;28;20585;-47
2022/01/07 02:33:33;;;;;;;2.25;1.75;;;;;;;;;;5039933;28;20422;-46
2022/01/07 02:36:06;;;;;;;2.55;1.98;;;;;;;;;;5042976;28;20543;-46
2022/01/07 02:38:32;;;;;;;2.15;1.80;;;;;;;;;;5039876;28;20183;-46
2022/01/07 02:40:58;;;;;;;1.98;1.83;;;;;;;;;;5046911;28;20194;-46
2022/01/07 02:43:24;;;;;;;2.25;2.00;;;;;;;;;;5047087;28;20310;-46
2022/01/07 02:45:50;;;;;;;1.92;1.73;;;;;;;;;;5043097;28;20640;-47
2022/01/07 02:48:16;;;;;;;2.65;1.98;;;;;;;;;;5031622;28;20180;-46
2022/01/07 02:50:42;;;;;;;1.98;1.80;;;;;;;;;;5043435;28;20173;-47
2022/01/07 02:53:10;;;;;;;2.35;2.10;;;;;;;;;;5042469;28;20458;-47
2022/01/07 02:55:36;;;;;;;2.00;1.80;;;;;;;;;;5050962;28;20439;-47
2022/01/07 02:58:02;;;;;;;1.70;1.60;;;;;;;;;;5038748;28;20254;-46
2022/01/07 03:00:29;;;;;;;1.90;1.70;;;;;;;;;;5043675;28;20187;-46
2022/01/07 03:02:55;;;;;;;2.05;1.88;;;;;;;;;;5043565;28;20867;-46
2022/01/07 03:05:22;;;;;;;2.10;1.90;;;;;;;;;;5047363;28;20180;-47
2022/01/07 03:07:48;;;;;;;2.13;1.75;;;;;;;;;;5043612;28;20226;-47
2022/01/07 03:10:16;;;;;;;1.70;1.60;;;;;;;;;;5045765;28;20179;-46
2022/01/07 03:12:43;;;;;;;1.70;1.60;;;;;;;;;;5033303;28;20242;-47
2022/01/07 03:15:10;;;;;;;2.08;1.80;;;;;;;;;;5055001;28;20174;-47
2022/01/07 03:17:39;;;;;;;1.70;1.60;;;;;;;;;;5041850;28;20188;-47
2022/01/07 03:20:07;;;;;;;2.28;1.63;;;;;;;;;;5047241;28;20555;-47
2022/01/07 03:22:33;;;;;;;1.85;1.65;;;;;;;;;;5044022;28;20207;-47
2022/01/07 03:24:59;;;;;;;1.90;1.67;;;;;;;;;;5034788;28;20187;-47
2022/01/07 03:27:25;;;;;;;3.13;1.98;;;;;;;;;;5017722;28;20199;-46
2022/01/07 03:29:51;;;;;;;1.50;1.40;;;;;;;;;;5044288;28;20176;-47
2022/01/07 03:32:17;;;;;;;1.73;1.63;;;;;;;;;;5040967;28;20238;-47
2022/01/07 03:34:43;;;;;;;2.08;1.63;;;;;;;;;;5030972;28;20224;-47
2022/01/07 03:37:09;;;;;;;1.92;1.50;;;;;;;;;;5045316;28;20196;-47
2022/01/07 03:39:35;;;;;;;2.03;1.75;;;;;;;;;;5040721;28;20191;-47
2022/01/07 03:42:01;;;;;;;1.75;1.60;;;;;;;;;;5043195;28;20190;-47
2022/01/07 03:44:27;;;;;;;1.77;1.67;;;;;;;;;;5045448;28;20179;-46
2022/01/07 03:46:53;;;;;;;1.98;1.77;;;;;;;;;;5045790;28;20183;-46
2022/01/07 03:49:19;;;;;;;2.00;1.50;;;;;;;;;;5028796;28;20187;-47
2022/01/07 03:51:45;;;;;;;1.83;1.70;;;;;;;;;;5044405;28;20436;-47
2022/01/07 03:54:11;;;;;;;2.38;1.70;;;;;;;;;;5037515;28;20233;-46
2022/01/07 03:56:37;;;;;;;2.70;1.90;;;;;;;;;;5032560;28;20656;-46
2022/01/07 03:59:03;;;;;;;1.95;1.60;;;;;;;;;;5037791;28;20259;-46
2022/01/07 04:01:29;;;;;;;2.63;1.75;;;;;;;;;;5041464;28;20249;-46
2022/01/07 04:03:55;;;;;;;1.75;1.63;;;;;;;;;;5042191;28;20239;-46
2022/01/07 04:06:21;;;;;;;1.95;1.75;;;;;;;;;;5044361;28;20187;-46
2022/01/07 04:08:48;;;;;;;2.22;1.80;;;;;;;;;;5042564;28;20938;-46
2022/01/07 04:11:14;;;;;;;1.92;1.63;;;;;;;;;;5045375;28;20182;-46
2022/01/07 04:13:40;;;;;;;2.45;1.63;;;;;;;;;;5041816;28;20558;-46
2022/01/07 04:16:06;;;;;;;1.73;1.58;;;;;;;;;;5032242;28;20175;-46
2022/01/07 04:18:32;;;;;;;2.83;1.80;;;;;;;;;;5044890;28;20244;-46
2022/01/07 04:20:58;;;;;;;1.75;1.65;;;;;;;;;;5033524;28;20188;-46
2022/01/07 04:23:24;;;;;;;2.03;1.58;;;;;;;;;;5037032;28;20239;-46
2022/01/07 04:25:50;;;;;;;1.75;1.45;;;;;;;;;;5041963;28;20214;-46
2022/01/07 04:28:16;;;;;;;1.95;1.65;;;;;;;;;;5044649;28;20179;-46
2022/01/07 04:30:43;;;;;;;1.58;1.48;;;;;;;;;;5034812;28;20439;-46
2022/01/07 04:33:13;;;;;;;1.55;1.42;;;;;;;;;;5040703;28;20207;-47
2022/01/07 04:35:39;;;;;;;2.22;1.58;;;;;;;;;;5029828;28;20195;-46
2022/01/07 04:38:06;;;;;;;1.50;1.40;;;;;;;;;;5035691;28;20530;-46
2022/01/07 04:40:32;;;;;;;1.27;1.17;;;;;;;;;;5039940;28;20191;-46
2022/01/07 04:42:59;;;;;;;1.75;1.50;;;;;;;;;;5034084;28;20215;-47
2022/01/07 04:45:25;;;;;;;1.70;1.60;;;;;;;;;;5043537;28;20350;-47
2022/01/07 04:47:51;;;;;;;2.05;1.50;;;;;;;;;;5024147;28;20266;-47
2022/01/07 04:50:18;;;;;;;1.80;1.40;;;;;;;;;;5035589;28;20172;-47
2022/01/07 04:52:45;;;;;;;2.88;1.70;;;;;;;;;;5028759;28;20558;-47
2022/01/07 04:55:15;;;;;;;1.70;1.60;;;;;;;;;;5044921;28;20175;-46
2022/01/07 04:57:42;;;;;;;2.17;1.60;;;;;;;;;;5016829;28;20434;-46
2022/01/07 05:00:08;;;;;;;1.55;1.45;;;;;;;;;;5039304;28;20202;-46
2022/01/07 05:02:34;;;;;;;3.17;1.55;;;;;;;;;;5025390;28;20233;-46
2022/01/07 05:05:00;;;;;;;5.07;1.33;;;;;;;;;;5028194;28;20460;-47
2022/01/07 05:07:26;;;;;;;1.88;1.33;;;;;;;;;;5027567;28;20184;-47
2022/01/07 05:09:52;;;;;;;4.47;1.90;;;;;;;;;;5042197;28;20226;-47
2022/01/07 05:12:18;;;;;;;2.08;1.55;;;;;;;;;;5044448;28;20467;-47
2022/01/07 05:14:44;;;;;;;3.28;1.83;;;;;;;;;;5044455;28;20197;-46
2022/01/07 05:17:10;;;;;;;5.20;1.98;;;;;;;;;;5042169;28;20684;-46
2022/01/07 05:19:36;;;;;;;5.50;2.22;;;;;;;;;;5044399;28;20214;-46
2022/01/07 05:22:02;;;;;;;4.57;2.00;;;;;;;;;;5031943;28;20217;-46
2022/01/07 05:24:28;;;;;;;3.70;1.70;;;;;;;;;;5036410;28;20290;-46
2022/01/07 05:26:54;;;;;;;3.47;1.73;;;;;;;;;;5038723;28;20659;-47
2022/01/07 05:29:20;;;;;;;2.97;1.88;;;;;;;;;;5040189;28;20270;-47
2022/01/07 05:31:46;;;;;;;7.50;2.47;;;;;;;;;;5022308;28;20546;-47
2022/01/07 05:34:12;;;;;;;9.02;3.15;;;;;;;;;;5043965;28;20183;-47
2022/01/07 05:36:38;;;;;;;11.32;3.97;;;;;;;;;;5046402;28;20276;-46
2022/01/07 05:39:05;;;;;;;13.20;4.53;;;;;;;;;;5040188;28;20180;-47
2022/01/07 05:41:32;;;;;;;21.52;5.30;;;;;;;;;;5042109;28;20186;-47
2022/01/07 05:43:58;;;;;;;22.80;5.97;;;;;;;;;;5035761;28;20214;-46
2022/01/07 05:46:24;;;;;;;22.33;6.63;;;;;;;;;;5043836;28;20499;-46
2022/01/07 05:48:50;;;;;;;28.27;7.57;;;;;;;;;;5033140;28;20219;-47
2022/01/07 05:51:17;;;;;;;30.08;7.50;;;;;;;;;;5046881;28;20203;-47
2022/01/07 05:53:46;;;;;;;29.15;7.93;;;;;;;;;;5044716;28;20184;-47
2022/01/07 05:56:12;;;;;;;31.67;8.75;;;;;;;;;;5041420;28;20191;-47
2022/01/07 05:58:38;;;;;;;32.83;9.30;;;;;;;;;;5034001;28;20408;-47
2022/01/07 06:01:04;;;;;;;34.08;9.13;;;;;;;;;;5047440;28;20457;-47
2022/01/07 06:03:31;;;;;;;35.00;9.63;;;;;;;;;;5033645;28;20207;-46
2022/01/07 06:05:57;;;;;;;31.65;9.23;;;;;;;;;;5028776;28;20226;-46
2022/01/07 06:08:22;;;;;;;30.73;9.43;;;;;;;;;;5038094;28;20585;-46
2022/01/07 06:10:48;;;;;;;31.73;10.20;;;;;;;;;;5044693;28;20195;-46
2022/01/07 06:13:14;;;;;;;31.48;8.48;;;;;;;;;;5039470;28;20209;-46
2022/01/07 06:15:41;;;;;;;28.20;9.05;;;;;;;;;;5045500;28;20207;-46
2022/01/07 06:18:07;;;;;;;28.98;8.77;;;;;;;;;;5042780;28;20191;-46
2022/01/07 06:20:33;;;;;;;30.05;8.60;;;;;;;;;;5040414;28;20223;-47
2022/01/07 06:22:59;;;;;;;27.55;8.15;;;;;;;;;;5047014;28;20298;-47
2022/01/07 06:25:25;;;;;;;34.92;9.25;;;;;;;;;;5038763;28;20270;-46
2022/01/07 06:27:51;;;;;;;30.35;8.45;;;;;;;;;;5049144;28;20195;-46
2022/01/07 06:30:17;;;;;;;26.02;8.52;;;;;;;;;;5041908;28;20171;-46
2022/01/07 06:32:43;;;;;;;29.17;8.93;;;;;;;;;;5045424;28;20210;-46
2022/01/07 06:35:10;;;;;;;27.08;8.85;;;;;;;;;;5035651;28;20187;-46
2022/01/07 06:37:36;;;;;;;26.77;8.15;;;;;;;;;;5041888;28;20188;-46
2022/01/07 06:40:04;;;;;;;22.30;7.28;;;;;;;;;;5043492;28;20188;-46
2022/01/07 06:42:30;;;;;;;24.50;7.35;;;;;;;;;;5039320;28;20257;-47
2022/01/07 06:44:56;;;;;;;25.05;7.10;;;;;;;;;;5046247;28;20178;-46
2022/01/07 06:47:22;;;;;;;20.83;7.18;;;;;;;;;;5048267;28;20194;-46
2022/01/07 06:49:48;;;;;;;22.95;7.20;;;;;;;;;;5040582;28;20286;-46
2022/01/07 06:52:14;;;;;;;20.20;6.20;;;;;;;;;;5041489;28;20192;-47
2022/01/07 06:54:40;;;;;;;23.95;7.35;;;;;;;;;;5043677;28;20515;-46
2022/01/07 06:57:06;;;;;;;19.27;6.78;;;;;;;;;;5045156;28;20194;-46
2022/01/07 06:59:32;;;;;;;19.77;7.45;;;;;;;;;;5042881;28;20198;-46
2022/01/07 07:01:58;;;;;;;19.08;6.78;;;;;;;;;;5034235;28;20474;-47
2022/01/07 07:04:24;;;;;;;18.60;6.18;;;;;;;;;;5036394;28;20184;-46
2022/01/07 07:06:50;;;;;;;18.45;6.43;;;;;;;;;;5043982;28;20187;-47
2022/01/07 07:09:18;;;;;;;17.73;6.47;;;;;;;;;;5046367;28;20488;-46
2022/01/07 07:11:44;;;;;;;16.33;6.47;;;;;;;;;;5044992;28;20197;-46
2022/01/07 07:14:10;;;;;;;15.43;5.75;;;;;;;;;;5047505;28;20608;-46
2022/01/07 07:16:36;;;;;;;15.25;5.88;;;;;;;;;;5045352;28;20195;-47
2022/01/07 07:19:02;;;;;;;15.10;5.90;;;;;;;;;;5046012;28;20632;-47
2022/01/07 07:21:28;;;;;;;16.08;5.93;;;;;;;;;;5039939;28;20196;-46
2022/01/07 07:23:54;;;;;;;13.52;5.15;;;;;;;;;;5040002;28;20224;-46
2022/01/07 07:26:20;;;;;;;15.85;6.05;;;;;;;;;;5051853;28;20190;-46
2022/01/07 07:28:47;;;;;;;13.50;5.55;;;;;;;;;;5040000;28;20184;-46
2022/01/07 07:31:16;;;;;;;15.40;5.38;;;;;;;;;;5043273;28;20179;-47
2022/01/07 07:36:31;;;;;;;14.93;5.38;;;;;;;;;;5017536;28;20190;-47
2022/01/07 07:39:00;;;;;;;15.88;5.22;;;;;;;;;;5040394;28;20190;-47
2022/01/07 07:41:26;;;;;;;10.70;4.50;;;;;;;;;;5042932;28;20431;-46
2022/01/07 07:43:52;;;;;;;13.57;5.55;;;;;;;;;;5040240;28;20241;-46
2022/01/07 07:46:19;;;;;;;11.93;4.80;;;;;;;;;;5030545;28;20247;-46
2022/01/07 07:48:46;;;;;;;13.48;4.22;;;;;;;;;;5023413;28;20184;-46
2022/01/07 07:51:12;;;;;;;12.70;4.43;;;;;;;;;;5025116;28;20180;-46
2022/01/07 07:53:38;;;;;;;16.48;4.85;;;;;;;;;;5036466;28;20234;-46
2022/01/07 07:56:05;;;;;;;11.52;4.60;;;;;;;;;;5025308;28;20247;-46
2022/01/07 07:58:31;;;;;;;11.57;4.50;;;;;;;;;;5022381;28;20273;-46
2022/01/07 08:00:57;;;;;;;11.48;4.68;;;;;;;;;;5026143;28;20189;-47
2022/01/07 08:03:24;;;;;;;11.48;4.22;;;;;;;;;;5021936;28;20332;-46
2022/01/07 08:05:50;;;;;;;10.27;4.45;;;;;;;;;;5023466;28;20596;-46
2022/01/07 08:08:16;;;;;;;11.13;4.45;;;;;;;;;;5023326;28;20183;-46
2022/01/07 08:10:50;;;;;;;13.98;4.22;;;;;;;;;;5033918;28;20544;-46
2022/01/07 08:15:58;;;;;;;7.43;3.67;;;;;;;;;;5030965;28;20204;-47
2022/01/07 08:18:24;;;;;;;7.47;3.67;;;;;;;;;;5028735;28;20203;-46
2022/01/07 08:20:51;;;;;;;11.18;4.05;;;;;;;;;;5031984;28;20202;-47
2022/01/07 08:23:18;;;;;;;8.50;3.42;;;;;;;;;;5030126;28;20265;-46
2022/01/07 08:25:44;;;;;;;8.27;3.80;;;;;;;;;;5029658;28;20184;-46
2022/01/07 08:28:12;;;;;;;7.30;3.50;;;;;;;;;;5029498;28;20188;-47
2022/01/07 08:30:59;;;;;;;11.68;4.07;;;;;;;;;;5029502;28;20172;-47
2022/01/07 08:36:09;;;;;;;7.50;3.40;;;;;;;;;;5028559;28;20495;-46
2022/01/07 08:38:35;;;;;;;8.95;3.55;;;;;;;;;;5033104;28;20233;-46
2022/01/07 08:41:01;;;;;;;7.90;3.28;;;;;;;;;;5030273;28;20180;-46
2022/01/07 08:43:27;;;;;;;10.05;3.58;;;;;;;;;;5027532;28;20351;-46
2022/01/07 08:45:53;;;;;;;5.95;3.08;;;;;;;;;;5031526;28;20278;-47
2022/01/07 08:48:20;;;;;;;8.35;3.90;;;;;;;;;;5034285;28;20175;-46
2022/01/07 08:50:46;;;;;;;8.00;3.08;;;;;;;;;;5033031;28;20184;-46
2022/01/07 08:53:12;;;;;;;6.88;3.38;;;;;;;;;;5031770;28;20194;-47
2022/01/07 08:55:38;;;;;;;6.68;3.38;;;;;;;;;;5029173;28;20184;-46
2022/01/07 08:58:05;;;;;;;7.70;3.00;;;;;;;;;;5028554;28;20547;-47
2022/01/07 09:00:31;;;;;;;8.63;3.63;;;;;;;;;;5033756;28;20780;-46
2022/01/07 09:02:57;;;;;;;6.18;3.38;;;;;;;;;;5044701;28;20262;-46
2022/01/07 09:05:23;;;;;;;5.60;2.80;;;;;;;;;;5027717;28;20189;-46
2022/01/07 09:07:49;;;;;;;7.65;3.10;;;;;;;;;;5032554;28;20188;-46
2022/01/07 09:10:15;;;;;;;5.00;2.80;;;;;;;;;;5039101;28;20190;-46
2022/01/07 09:12:41;;;;;;;5.93;2.88;;;;;;;;;;5033901;28;20187;-46
2022/01/07 09:15:08;;;;;;;6.10;2.97;;;;;;;;;;5047792;28;20213;-47
2022/01/07 09:17:35;;;;;;;6.15;3.10;;;;;;;;;;5037856;28;20270;-46
2022/01/07 09:20:01;;;;;;;4.88;2.90;;;;;;;;;;5039512;28;20197;-46
2022/01/07 09:22:27;;;;;;;6.97;3.00;;;;;;;;;;5036779;28;20211;-46
2022/01/07 09:24:53;;;;;;;4.22;2.35;;;;;;;;;;5026061;28;20216;-46
2022/01/07 09:27:19;;;;;;;5.15;2.28;;;;;;;;;;5044325;28;20222;-46
2022/01/07 09:29:46;;;;;;;4.28;2.53;;;;;;;;;;5038298;28;20184;-46
2022/01/07 09:32:12;;;;;;;7.15;2.90;;;;;;;;;;5035166;28;20223;-47
2022/01/07 09:34:38;;;;;;;5.70;2.63;;;;;;;;;;5014799;28;20189;-46
2022/01/07 09:37:05;;;;;;;3.70;2.40;;;;;;;;;;5013699;28;20339;-46
2022/01/07 09:39:32;;;;;;;6.45;2.40;;;;;;;;;;5044092;28;20187;-46
2022/01/07 09:41:59;;;;;;;5.68;3.00;;;;;;;;;;5030212;28;20259;-46
2022/01/07 09:44:26;;;;;;;5.75;2.55;;;;;;;;;;5028908;28;20176;-46
2022/01/07 09:46:52;;;;;;;4.35;2.30;;;;;;;;;;5033151;28;20457;-46
2022/01/07 09:49:18;;;;;;;4.85;2.42;;;;;;;;;;5029192;28;20543;-46
2022/01/07 09:51:44;;;;;;;4.68;2.60;;;;;;;;;;5030557;28;20199;-46
2022/01/07 09:54:10;;;;;;;3.88;2.40;;;;;;;;;;5028899;28;20202;-47
2022/01/07 09:56:37;;;;;;;4.97;2.38;;;;;;;;;;5037106;28;20247;-47
2022/01/07 09:59:05;;;;;;;5.25;2.70;;;;;;;;;;5030469;28;20274;-46
2022/01/07 10:01:31;;;;;;;3.40;2.03;;;;;;;;;;5028746;28;20179;-46
2022/01/07 10:03:57;;;;;;;2.33;1.80;;;;;;;;;;5028844;28;20235;-47
2022/01/07 10:06:27;;;;;;;3.63;2.00;;;;;;;;;;5029956;28;20551;-46
2022/01/07 10:09:11;;;;;;;4.97;2.33;;;;;;;;;;5032495;28;20184;-46
2022/01/07 10:11:38;;;;;;;4.75;1.90;;;;;;;;;;5023859;28;20214;-46
2022/01/07 10:14:20;;;;;;;5.18;2.30;;;;;;;;;;5031943;28;20175;-46
2022/01/07 10:16:56;;;;;;;3.03;1.90;;;;;;;;;;5023441;28;20180;-47
2022/01/07 10:19:33;;;;;;;2.70;1.90;;;;;;;;;;5029984;28;20715;-47
2022/01/07 10:22:04;;;;;;;3.60;1.90;;;;;;;;;;5032057;28;20258;-46
2022/01/07 10:24:30;;;;;;;4.38;1.92;;;;;;;;;;5031996;28;20196;-46
2022/01/07 10:27:12;;;;;;;4.63;2.20;;;;;;;;;;5026152;28;20188;-46
2022/01/07 10:29:43;;;;;;;4.65;1.80;;;;;;;;;;5014276;28;20506;-46
2022/01/07 10:32:23;;;;;;;2.88;1.85;;;;;;;;;;5027542;28;20418;-46
2022/01/07 10:35:04;;;;;;;4.68;1.90;;;;;;;;;;5025154;28;20179;-46
2022/01/07 10:37:30;;;;;;;3.72;2.00;;;;;;;;;;5025519;28;20253;-46
2022/01/07 10:39:56;;;;;;;3.03;1.83;;;;;;;;;;5050587;28;20175;-46
2022/01/07 10:42:25;;;;;;;2.80;1.80;;;;;;;;;;5038831;28;20213;-46
2022/01/07 10:45:02;;;;;;;3.55;2.03;;;;;;;;;;5042020;28;20192;-47
2022/01/07 10:47:28;;;;;;;3.22;1.80;;;;;;;;;;5038190;28;20183;-46
2022/01/07 10:50:32;;;;;;;3.58;1.77;;;;;;;;;;5053592;28;20229;-47
2022/01/07 10:53:19;;;;;;;3.17;1.60;;;;;;;;;;4941018;29;20308;-46
2022/01/07 10:55:58;;;;;;;4.15;1.70;;;;;;;;;;4941423;29;20187;-46
2022/01/07 10:58:24;;;;;;;2.35;1.58;;;;;;;;;;5012283;28;20222;-46
2022/01/07 11:00:50;;;;;;;2.30;1.70;;;;;;;;;;5042884;28;20188;-47
2022/01/07 11:03:16;;;;;;;2.70;1.60;;;;;;;;;;5036952;28;20286;-47
2022/01/07 11:05:42;;;;;;;3.25;1.77;;;;;;;;;;5044520;28;20259;-46
2022/01/07 11:08:09;;;;;;;1.85;1.25;;;;;;;;;;5042174;28;20522;-46
2022/01/07 11:10:38;;;;;;;2.40;1.75;;;;;;;;;;5042275;28;20187;-46
2022/01/07 11:13:05;;;;;;;3.78;1.52;;;;;;;;;;5023292;28;20179;-47
2022/01/07 11:15:31;;;;;;;2.03;1.50;;;;;;;;;;5031741;28;20732;-47
2022/01/07 11:17:57;;;;;;;2.60;1.85;;;;;;;;;;5045146;28;20198;-47
2022/01/07 11:20:24;;;;;;;3.05;1.67;;;;;;;;;;5039853;28;20671;-46
2022/01/07 11:22:51;;;;;;;1.83;1.30;;;;;;;;;;5037912;28;20204;-46
2022/01/07 11:25:18;;;;;;;2.35;1.52;;;;;;;;;;5047095;28;20267;-46
2022/01/07 11:27:48;;;;;;;3.90;1.67;;;;;;;;;;5045407;28;20215;-47
2022/01/07 11:30:17;;;;;;;3.90;1.77;;;;;;;;;;5044575;28;20167;-46
2022/01/07 11:32:52;;;;;;;2.75;1.73;;;;;;;;;;5051503;28;20278;-46
2022/01/07 11:35:23;;;;;;;1.73;1.30;;;;;;;;;;5043521;28;20529;-46
2022/01/07 11:37:53;;;;;;;2.22;1.50;;;;;;;;;;5048095;28;20584;-46
2022/01/07 11:40:29;;;;;;;1.85;1.60;;;;;;;;;;5051991;28;20202;-46
2022/01/07 11:42:55;;;;;;;3.58;1.70;;;;;;;;;;5041492;28;20199;-46
2022/01/07 11:45:27;;;;;;;2.30;1.90;;;;;;;;;;5046033;28;20190;-46
2022/01/07 11:47:53;;;;;;;3.28;1.60;;;;;;;;;;5043553;28;20183;-46
2022/01/07 11:50:19;;;;;;;4.78;1.75;;;;;;;;;;5039208;28;20291;-46
2022/01/07 11:52:55;;;;;;;2.38;1.63;;;;;;;;;;5041289;28;20246;-46
2022/01/07 11:55:35;;;;;;;3.05;1.42;;;;;;;;;;5047305;28;20188;-46
2022/01/07 11:58:09;;;;;;;2.42;1.60;;;;;;;;;;5030497;28;20190;-46
2022/01/07 12:00:49;;;;;;;1.65;1.48;;;;;;;;;;5019060;28;20191;-46
2022/01/07 12:03:29;;;;;;;2.78;1.45;;;;;;;;;;5044654;28;20217;-46
2022/01/07 12:05:55;;;;;;;3.55;1.48;;;;;;;;;;5047296;28;20182;-46
2022/01/07 12:08:37;;;;;;;1.77;1.45;;;;;;;;;;5039528;28;20185;-46
2022/01/07 12:11:10;;;;;;;3.28;1.63;;;;;;;;;;5029439;28;20187;-46
2022/01/07 12:13:39;;;;;;;2.08;1.40;;;;;;;;;;5035169;28;20180;-46
2022/01/07 12:16:08;;;;;;;1.70;1.60;;;;;;;;;;5037311;28;20200;-46
2022/01/07 12:18:35;;;;;;;3.15;1.48;;;;;;;;;;5027867;28;20180;-46
2022/01/07 12:21:01;;;;;;;1.75;1.60;;;;;;;;;;5032239;28;20179;-46
2022/01/07 12:23:27;;;;;;;3.47;1.55;;;;;;;;;;5042082;28;20605;-46
2022/01/07 12:25:54;;;;;;;4.30;1.50;;;;;;;;;;5042463;28;20180;-46
2022/01/07 12:28:20;;;;;;;6.90;1.80;;;;;;;;;;5039290;28;20188;-46
2022/01/07 12:30:47;;;;;;;3.40;1.50;;;;;;;;;;5037730;28;20222;-46
2022/01/07 12:33:14;;;;;;;2.22;1.50;;;;;;;;;;5045120;28;20488;-46
2022/01/07 12:35:41;;;;;;;2.50;1.40;;;;;;;;;;5028518;28;20191;-46
2022/01/07 12:38:17;;;;;;;2.67;1.55;;;;;;;;;;5037556;28;20180;-46
2022/01/07 12:40:51;;;;;;;3.08;1.85;;;;;;;;;;5036763;28;20187;-46
2022/01/07 12:43:19;;;;;;;2.45;1.45;;;;;;;;;;5046260;28;20203;-46
2022/01/07 12:45:54;;;;;;;3.38;1.63;;;;;;;;;;5044266;28;20254;-46
2022/01/07 12:48:29;;;;;;;3.72;1.42;;;;;;;;;;5031727;28;20198;-46
2022/01/07 12:50:59;;;;;;;1.50;1.30;;;;;;;;;;5040344;28;20190;-45
2022/01/07 12:53:25;;;;;;;3.35;1.67;;;;;;;;;;5038697;28;20194;-46
2022/01/07 12:55:51;;;;;;;2.15;1.48;;;;;;;;;;5043109;28;20192;-46
2022/01/07 12:58:26;;;;;;;3.58;1.67;;;;;;;;;;5028759;28;20197;-46
2022/01/07 13:00:52;;;;;;;3.33;1.40;;;;;;;;;;5040302;28;20211;-45
2022/01/07 13:03:24;;;;;;;1.70;1.35;;;;;;;;;;5038716;28;20253;-46
2022/01/07 13:05:50;;;;;;;1.55;1.30;;;;;;;;;;5034718;28;20199;-45
2022/01/07 13:08:17;;;;;;;3.55;1.33;;;;;;;;;;5036218;28;20179;-46
2022/01/07 13:10:45;;;;;;;2.53;1.60;;;;;;;;;;5042547;28;20219;-46
2022/01/07 13:13:15;;;;;;;5.43;1.50;;;;;;;;;;5043023;28;20183;-46
2022/01/07 13:15:43;;;;;;;3.72;1.30;;;;;;;;;;5034916;28;20203;-46
2022/01/07 13:18:28;;;;;;;1.73;1.30;;;;;;;;;;5034442;28;20183;-46
2022/01/07 13:20:56;;;;;;;1.77;1.30;;;;;;;;;;5027853;28;20196;-46
2022/01/07 13:23:24;;;;;;;2.10;1.30;;;;;;;;;;5040516;28;20234;-46
2022/01/07 13:25:50;;;;;;;1.80;1.08;;;;;;;;;;5033139;28;20578;-46
2022/01/07 13:28:28;;;;;;;3.10;1.50;;;;;;;;;;5035706;28;20183;-46
2022/01/07 13:30:55;;;;;;;2.90;1.50;;;;;;;;;;5022857;28;20180;-46
2022/01/07 13:33:25;;;;;;;1.63;1.15;;;;;;;;;;5029998;28;20186;-46
2022/01/07 13:35:56;;;;;;;2.67;1.20;;;;;;;;;;5032427;28;20198;-46
2022/01/07 13:38:22;;;;;;;1.20;1.10;;;;;;;;;;5034021;28;20194;-46
2022/01/07 13:40:49;;;;;;;2.15;1.27;;;;;;;;;;5039778;28;20237;-46
2022/01/07 13:43:17;;;;;;;3.03;1.38;;;;;;;;;;5029238;28;20483;-46
2022/01/07 13:45:44;;;;;;;2.22;1.40;;;;;;;;;;5025563;28;20465;-46
2022/01/07 13:48:11;;;;;;;1.95;1.27;;;;;;;;;;5025849;28;20224;-46
2022/01/07 13:50:39;;;;;;;1.40;1.30;;;;;;;;;;5033583;28;20183;-46
2022/01/07 13:53:18;;;;;;;2.03;1.30;;;;;;;;;;5043522;28;20279;-46
2022/01/07 13:55:45;;;;;;;4.57;1.48;;;;;;;;;;5049196;28;20190;-46
2022/01/07 13:58:20;;;;;;;2.03;1.30;;;;;;;;;;5027431;28;20226;-46
2022/01/07 14:00:47;;;;;;;1.30;1.20;;;;;;;;;;5020343;28;20532;-46
2022/01/07 14:03:14;;;;;;;2.17;1.42;;;;;;;;;;5024097;28;20549;-46
2022/01/07 14:05:41;;;;;;;1.60;1.10;;;;;;;;;;5035609;28;20419;-47
2022/01/07 14:08:10;;;;;;;1.58;1.30;;;;;;;;;;5045041;28;20175;-46
2022/01/07 14:10:36;;;;;;;2.42;1.30;;;;;;;;;;5043180;28;20185;-47
2022/01/07 14:13:06;;;;;;;3.38;1.30;;;;;;;;;;5050727;28;20420;-46
2022/01/07 14:15:32;;;;;;;1.63;1.10;;;;;;;;;;5039836;28;20200;-46
2022/01/07 14:18:09;;;;;;;1.25;1.15;;;;;;;;;;5049369;28;20473;-46
2022/01/07 14:20:44;;;;;;;3.10;1.50;;;;;;;;;;5030073;28;20211;-46
2022/01/07 14:23:11;;;;;;;1.88;1.33;;;;;;;;;;5046632;28;20203;-46
2022/01/07 14:25:37;;;;;;;1.83;1.30;;;;;;;;;;5049154;28;20184;-46
2022/01/07 14:28:03;;;;;;;1.27;1.10;;;;;;;;;;5043625;28;20224;-46
2022/01/07 14:30:29;;;;;;;3.15;1.27;;;;;;;;;;5043249;28;20193;-46
2022/01/07 14:32:55;;;;;;;1.60;1.17;;;;;;;;;;5025932;28;20182;-46
2022/01/07 14:35:21;;;;;;;1.55;0.98;;;;;;;;;;5048540;28;20184;-46
2022/01/07 14:37:47;;;;;;;1.27;1.17;;;;;;;;;;5049002;28;20211;-46
2022/01/07 14:40:13;;;;;;;1.45;1.30;;;;;;;;;;5047906;28;20198;-46
2022/01/07 14:42:39;;;;;;;1.98;1.30;;;;;;;;;;5042070;28;20272;-46
2022/01/07 14:45:06;;;;;;;1.38;1.00;;;;;;;;;;5047351;28;20175;-46
2022/01/07 14:47:32;;;;;;;1.17;1.08;;;;;;;;;;5048503;28;20360;-47
2022/01/07 14:49:58;;;;;;;1.85;1.33;;;;;;;;;;5034430;28;20220;-46
2022/01/07 14:52:25;;;;;;;1.33;1.20;;;;;;;;;;5041353;28;20176;-46